createdAt,value
2023-05-06T00:01:03.673Z,100750.41
2023-05-06T00:03:32.552Z,100754.09
2023-05-06T00:06:02.903Z,100744.56
2023-05-06T00:08:32.617Z,100749.84
2023-05-06T00:11:00.982Z,100752.59
2023-05-06T00:13:29.707Z,100754.41
2023-05-06T00:15:58.439Z,100752.59
2023-05-06T00:18:27.111Z,100752.47
2023-05-06T00:20:56.010Z,100756.88
2023-05-06T00:23:24.689Z,100749.78
2023-05-06T00:25:55.134Z,100748.81
2023-05-06T00:28:23.802Z,100750.66
2023-05-06T00:30:52.457Z,100751.47
2023-05-06T00:33:21.214Z,100747.06
2023-05-06T00:35:50.751Z,100750.56
2023-05-06T00:38:19.574Z,100750.66
2023-05-06T00:40:48.298Z,100752.47
2023-05-06T00:43:18.133Z,100743.78
2023-05-06T00:45:46.918Z,100736.88
2023-05-06T00:48:17.296Z,100740.47
2023-05-06T00:50:46.397Z,100737.13
2023-05-06T00:53:15.073Z,100744.38
2023-05-06T00:55:44.674Z,100746.34
2023-05-06T00:58:13.968Z,100749.13
2023-05-06T01:00:44.551Z,100743.22
2023-05-06T01:03:13.495Z,100746.16
2023-05-06T01:05:52.656Z,100737.50
2023-05-06T01:08:28.790Z,100728.97
2023-05-06T01:11:03.360Z,100735.34
2023-05-06T01:13:39.998Z,100739.88
2023-05-06T01:16:11.299Z,100740.09
2023-05-06T01:18:40.968Z,100734.09
2023-05-06T01:21:10.341Z,100744.75
2023-05-06T01:23:58.057Z,100742.91
2023-05-06T01:26:27.255Z,100745.88
2023-05-06T01:28:57.082Z,100749.56
2023-05-06T01:31:35.369Z,100743.38
2023-05-06T01:34:16.238Z,100738.09
2023-05-06T01:36:57.942Z,100740.84
2023-05-06T01:39:30.991Z,100738.31
2023-05-06T01:42:01.990Z,100738.44
2023-05-06T01:44:35.023Z,100740.22
2023-05-06T01:47:04.733Z,100737.72
2023-05-06T01:49:33.867Z,100747.50
2023-05-06T01:52:03.818Z,100743.09
2023-05-06T01:54:33.817Z,100749.31
2023-05-06T01:57:03.794Z,100763.53
2023-05-06T01:59:32.505Z,100757.47
2023-05-06T02:02:01.321Z,100757.56
2023-05-06T02:04:29.790Z,100762.06
2023-05-06T02:06:58.563Z,100768.25
2023-05-06T02:09:27.238Z,100770.09
2023-05-06T02:12:01.713Z,100765.66
2023-05-06T02:14:30.470Z,100765.66
2023-05-06T02:17:04.854Z,100776.09
2023-05-06T02:19:33.612Z,100774.50
2023-05-06T02:22:02.438Z,100773.72
2023-05-06T02:24:31.207Z,100774.78
2023-05-06T02:27:02.275Z,100769.63
2023-05-06T02:29:31.566Z,100765.38
2023-05-06T02:32:00.239Z,100765.50
2023-05-06T02:34:28.690Z,100765.59
2023-05-06T02:36:57.395Z,100770.06
2023-05-06T02:39:26.066Z,100765.75
2023-05-06T02:41:54.801Z,100766.75
2023-05-06T02:44:24.617Z,100764.16
2023-05-06T02:46:53.344Z,100764.31
2023-05-06T02:49:22.063Z,100760.81
2023-05-06T02:51:50.420Z,100756.59
2023-05-06T02:54:19.125Z,100749.63
2023-05-06T02:56:47.869Z,100750.63
2023-05-06T02:59:17.374Z,100748.97
2023-05-06T03:01:47.381Z,100747.34
2023-05-06T03:04:16.271Z,100748.47
2023-05-06T03:06:44.924Z,100746.94
2023-05-06T03:09:13.381Z,100745.41
2023-05-06T03:11:42.083Z,100757.84
2023-05-06T03:14:10.996Z,100758.81
2023-05-06T03:16:39.698Z,100755.41
2023-05-06T03:19:10.210Z,100755.59
2023-05-06T03:21:38.960Z,100749.63
2023-05-06T03:24:08.132Z,100758.53
2023-05-06T03:26:37.617Z,100748.09
2023-05-06T03:29:06.872Z,100750.84
2023-05-06T03:31:36.599Z,100755.25
2023-05-06T03:34:05.325Z,100763.16
2023-05-06T03:36:36.603Z,100765.69
2023-05-06T03:39:05.298Z,100760.44
2023-05-06T03:41:35.976Z,100763.06
2023-05-06T03:44:04.860Z,100761.28
2023-05-06T03:46:33.636Z,100763.03
2023-05-06T03:49:02.844Z,100756.03
2023-05-06T03:51:31.801Z,100764.84
2023-05-06T03:54:01.726Z,100765.69
2023-05-06T03:56:30.726Z,100771.88
2023-05-06T03:59:00.460Z,100767.53
2023-05-06T04:01:30.201Z,100771.06
2023-05-06T04:03:58.955Z,100765.78
2023-05-06T04:06:29.080Z,100769.34
2023-05-06T04:08:57.921Z,100762.38
2023-05-06T04:11:29.726Z,100764.91
2023-05-06T04:13:59.606Z,100762.28
2023-05-06T04:16:28.398Z,100764.81
2023-05-06T04:18:57.466Z,100774.31
2023-05-06T04:21:26.273Z,100770.69
2023-05-06T04:24:00.541Z,100777.22
2023-05-06T04:26:36.651Z,100778.44
2023-05-06T04:29:06.968Z,100784.56
2023-05-06T04:31:40.856Z,100777.41
2023-05-06T04:34:12.341Z,100782.56
2023-05-06T04:36:41.909Z,100786.03
2023-05-06T04:39:21.728Z,100795.53
2023-05-06T04:41:52.617Z,100793.63
2023-05-06T04:44:28.915Z,100797.97
2023-05-06T04:46:57.726Z,100806.69
2023-05-06T04:49:26.437Z,100808.41
2023-05-06T04:51:57.992Z,100811.84
2023-05-06T04:54:27.448Z,100803.03
2023-05-06T04:56:57.244Z,100815.19
2023-05-06T04:59:26.178Z,100808.22
2023-05-06T05:01:55.441Z,100811.66
2023-05-06T05:04:24.240Z,100810.75
2023-05-06T05:06:53.380Z,100813.28
2023-05-06T05:09:22.242Z,100807.91
2023-05-06T05:11:51.694Z,100813.06
2023-05-06T05:14:22.430Z,100811.16
2023-05-06T05:16:51.734Z,100809.25
2023-05-06T05:19:21.299Z,100808.16
2023-05-06T05:21:50.221Z,100811.41
2023-05-06T05:24:19.560Z,100812.09
2023-05-06T05:26:48.268Z,100816.22
2023-05-06T05:29:18.767Z,100815.03
2023-05-06T05:31:50.341Z,100828.81
2023-05-06T05:34:19.927Z,100817.09
2023-05-06T05:36:48.985Z,100821.19
2023-05-06T05:39:17.859Z,100820.88
2023-05-06T05:41:48.569Z,100820.53
2023-05-06T05:44:17.737Z,100817.59
2023-05-06T05:46:46.917Z,100821.69
2023-05-06T05:49:19.690Z,100826.63
2023-05-06T05:51:50.278Z,100829.84
2023-05-06T05:54:20.231Z,100829.50
2023-05-06T05:56:50.411Z,100833.47
2023-05-06T05:59:19.109Z,100830.47
2023-05-06T06:01:50.045Z,100830.22
2023-05-06T06:04:19.876Z,100825.44
2023-05-06T06:06:48.671Z,100819.06
2023-05-06T06:09:17.934Z,100823.97
2023-05-06T06:11:47.275Z,100822.75
2023-05-06T06:14:16.021Z,100818.09
2023-05-06T06:16:44.964Z,100816.00
2023-05-06T06:19:14.782Z,100813.91
2023-05-06T06:21:45.589Z,100817.03
2023-05-06T06:24:15.058Z,100817.56
2023-05-06T06:26:43.737Z,100823.44
2023-05-06T06:29:12.545Z,100814.31
2023-05-06T06:31:41.228Z,100818.38
2023-05-06T06:34:12.473Z,100827.66
2023-05-06T06:36:45.030Z,100818.41
2023-05-06T06:39:14.895Z,100832.94
2023-05-06T06:41:43.652Z,100827.38
2023-05-06T06:44:12.376Z,100827.84
2023-05-06T06:46:41.604Z,100837.22
2023-05-06T06:49:10.408Z,100835.09
2023-05-06T06:51:39.080Z,100836.50
2023-05-06T06:54:07.834Z,100831.75
2023-05-06T06:56:37.569Z,100833.00
2023-05-06T06:59:06.376Z,100832.69
2023-05-06T07:01:35.209Z,100832.31
2023-05-06T07:04:05.978Z,100835.34
2023-05-06T07:06:36.342Z,100835.69
2023-05-06T07:09:05.129Z,100837.59
2023-05-06T07:11:33.831Z,100835.16
2023-05-06T07:14:03.596Z,100842.19
2023-05-06T07:16:32.374Z,100837.91
2023-05-06T07:19:01.566Z,100841.13
2023-05-06T07:21:32.228Z,100846.75
2023-05-06T07:24:01.151Z,100839.28
2023-05-06T07:26:29.598Z,100836.78
2023-05-06T07:28:58.306Z,100836.03
2023-05-06T07:31:28.101Z,100832.84
2023-05-06T07:33:58.352Z,100839.28
2023-05-06T07:36:28.675Z,100844.03
2023-05-06T07:38:57.381Z,100839.66
2023-05-06T07:41:26.175Z,100841.59
2023-05-06T07:43:54.856Z,100836.63
2023-05-06T07:46:23.822Z,100835.19
2023-05-06T07:48:53.622Z,100830.84
2023-05-06T07:51:22.579Z,100840.97
2023-05-06T07:53:51.251Z,100837.91
2023-05-06T07:56:19.991Z,100835.59
2023-05-06T07:58:49.267Z,100836.81
2023-05-06T08:01:17.994Z,100840.44
2023-05-06T08:03:46.795Z,100841.53
2023-05-06T08:06:16.642Z,100839.53
2023-05-06T08:08:46.486Z,100840.53
2023-05-06T08:11:16.110Z,100847.50
2023-05-06T08:13:46.081Z,100845.72
2023-05-06T08:16:14.663Z,100850.59
2023-05-06T08:18:43.493Z,100842.72
2023-05-06T08:21:12.224Z,100841.63
2023-05-06T08:23:41.993Z,100849.56
2023-05-06T08:26:11.013Z,100837.78
2023-05-06T08:28:39.693Z,100844.50
2023-05-06T08:31:08.037Z,100846.94
2023-05-06T08:33:36.791Z,100838.78
2023-05-06T08:36:05.737Z,100839.28
2023-05-06T08:38:34.396Z,100841.81
2023-05-06T08:41:10.036Z,100840.72
2023-05-06T08:43:42.581Z,100845.41
2023-05-06T08:46:11.907Z,100841.97
2023-05-06T08:48:40.667Z,100842.06
2023-05-06T08:51:10.254Z,100845.94
2023-05-06T08:53:43.763Z,100840.66
2023-05-06T08:56:14.673Z,100835.94
2023-05-06T08:58:46.936Z,100837.44
2023-05-06T09:01:16.484Z,100841.56
2023-05-06T09:03:45.247Z,100838.03
2023-05-06T09:06:13.938Z,100837.50
2023-05-06T09:08:42.678Z,100834.00
2023-05-06T09:11:26.392Z,100826.38
2023-05-06T09:14:11.941Z,100835.44
2023-05-06T09:16:42.759Z,100828.25
2023-05-06T09:19:11.893Z,100830.50
2023-05-06T09:21:43.951Z,100821.72
2023-05-06T09:24:14.527Z,100815.66
2023-05-06T09:26:46.156Z,100824.78
2023-05-06T09:29:14.752Z,100819.50
2023-05-06T09:31:45.434Z,100812.75
2023-05-06T09:34:15.428Z,100812.44
2023-05-06T09:36:44.354Z,100803.28
2023-05-06T09:39:13.090Z,100812.09
2023-05-06T09:41:43.522Z,100810.53
2023-05-06T09:44:13.224Z,100813.47
2023-05-06T09:46:41.984Z,100808.41
2023-05-06T09:49:11.030Z,100802.09
2023-05-06T09:51:41.462Z,100804.31
2023-05-06T09:54:10.779Z,100797.72
2023-05-06T09:56:39.924Z,100791.78
2023-05-06T09:59:11.175Z,100803.13
2023-05-06T10:01:41.242Z,100788.97
2023-05-06T10:04:10.858Z,100783.69
2023-05-06T10:06:41.925Z,100786.56
2023-05-06T10:09:11.269Z,100789.16
2023-05-06T10:11:40.800Z,100785.72
2023-05-06T10:14:11.793Z,100783.81
2023-05-06T10:16:41.526Z,100773.13
2023-05-06T10:19:10.289Z,100784.53
2023-05-06T10:21:46.249Z,100781.72
2023-05-06T10:24:19.517Z,100772.03
2023-05-06T10:26:48.209Z,100772.84
2023-05-06T10:29:19.794Z,100762.75
2023-05-06T10:31:58.139Z,100761.84
2023-05-06T10:34:27.036Z,100765.94
2023-05-06T10:36:59.240Z,100756.72
2023-05-06T10:39:28.457Z,100756.31
2023-05-06T10:41:57.681Z,100755.69
2023-05-06T10:45:03.500Z,100748.34
2023-05-06T10:48:09.637Z,100743.13
2023-05-06T10:50:38.331Z,100740.16
2023-05-06T10:53:06.738Z,100740.22
2023-05-06T10:55:37.687Z,100729.91
2023-05-06T10:58:16.343Z,100742.59
2023-05-06T11:00:55.551Z,100728.13
2023-05-06T11:03:25.246Z,100730.44
2023-05-06T11:05:54.311Z,100731.94
2023-05-06T11:08:25.026Z,100728.09
2023-05-06T11:10:54.101Z,100734.41
2023-05-06T11:13:26.282Z,100729.69
2023-05-06T11:15:57.080Z,100725.31
2023-05-06T11:18:45.018Z,100726.00
2023-05-06T11:21:41.554Z,100722.25
2023-05-06T11:24:15.250Z,100719.91
2023-05-06T11:26:44.595Z,100722.28
2023-05-06T11:29:13.361Z,100726.34
2023-05-06T11:31:45.366Z,100719.59
2023-05-06T11:34:22.188Z,100713.66
2023-05-06T11:37:03.730Z,100711.13
2023-05-06T11:39:39.752Z,100707.69
2023-05-06T11:42:09.659Z,100718.88
2023-05-06T11:44:40.056Z,100714.84
2023-05-06T11:47:10.490Z,100720.59
2023-05-06T11:49:41.606Z,100709.75
2023-05-06T11:52:11.682Z,100704.50
2023-05-06T11:54:42.074Z,100708.69
2023-05-06T11:57:10.835Z,100710.00
2023-05-06T11:59:41.249Z,100707.91
2023-05-06T12:02:15.549Z,100706.84
2023-05-06T12:04:46.284Z,100712.88
2023-05-06T12:07:17.093Z,100708.91
2023-05-06T12:09:49.459Z,100706.59
2023-05-06T12:12:22.163Z,100706.31
2023-05-06T12:14:53.296Z,100702.38
2023-05-06T12:17:23.695Z,100693.72
2023-05-06T12:19:52.186Z,100695.75
2023-05-06T12:22:22.681Z,100697.13
2023-05-06T12:24:51.528Z,100676.25
2023-05-06T12:27:33.463Z,100686.22
2023-05-06T12:30:04.529Z,100683.66
2023-05-06T12:32:34.711Z,100681.41
2023-05-06T12:35:07.346Z,100678.53
2023-05-06T12:37:36.205Z,100673.78
2023-05-06T12:40:17.090Z,100683.31
2023-05-06T12:42:47.743Z,100685.63
2023-05-06T12:45:16.530Z,100677.06
2023-05-06T12:47:55.954Z,100680.22
2023-05-06T12:50:36.368Z,100679.56
2023-05-06T12:53:05.681Z,100673.44
2023-05-06T12:55:34.776Z,100675.69
2023-05-06T12:58:03.957Z,100666.91
2023-05-06T13:00:32.639Z,100668.78
2023-05-06T13:03:02.470Z,100668.72
2023-05-06T13:05:31.409Z,100663.34
2023-05-06T13:08:00.061Z,100672.78
2023-05-06T13:10:28.884Z,100666.34
2023-05-06T13:12:57.629Z,100665.34
2023-05-06T13:15:27.015Z,100663.97
2023-05-06T13:17:57.130Z,100661.59
2023-05-06T13:20:27.013Z,100657.19
2023-05-06T13:22:55.530Z,100657.50
2023-05-06T13:25:24.264Z,100656.47
2023-05-06T13:27:54.019Z,100648.34
2023-05-06T13:30:22.487Z,100645.94
2023-05-06T13:32:51.238Z,100643.63
2023-05-06T13:35:19.993Z,100640.97
2023-05-06T13:37:49.688Z,100644.69
2023-05-06T13:40:18.283Z,100647.88
2023-05-06T13:42:46.641Z,100632.69
2023-05-06T13:45:15.669Z,100625.75
2023-05-06T13:47:44.379Z,100622.72
2023-05-06T13:50:13.198Z,100623.75
2023-05-06T13:52:41.935Z,100627.28
2023-05-06T13:55:12.106Z,100616.28
2023-05-06T13:57:40.800Z,100619.28
2023-05-06T14:00:11.431Z,100613.16
2023-05-06T14:02:40.559Z,100611.56
2023-05-06T14:05:09.800Z,100608.44
2023-05-06T14:07:40.456Z,100621.69
2023-05-06T14:10:11.922Z,100609.06
2023-05-06T14:12:40.967Z,100607.16
2023-05-06T14:15:10.980Z,100603.06
2023-05-06T14:17:39.957Z,100605.25
2023-05-06T14:20:09.973Z,100602.88
2023-05-06T14:22:41.418Z,100602.63
2023-05-06T14:25:12.137Z,100605.97
2023-05-06T14:27:41.267Z,100604.97
2023-05-06T14:30:10.682Z,100599.16
2023-05-06T14:32:39.513Z,100595.13
2023-05-06T14:35:10.172Z,100596.50
2023-05-06T14:37:39.045Z,100597.91
2023-05-06T14:40:10.008Z,100583.44
2023-05-06T14:42:39.885Z,100579.69
2023-05-06T14:45:10.022Z,100587.16
2023-05-06T14:47:39.681Z,100577.34
2023-05-06T14:50:10.600Z,100589.53
2023-05-06T14:52:40.204Z,100578.38
2023-05-06T14:55:11.090Z,100579.38
2023-05-06T14:57:41.147Z,100567.78
2023-05-06T15:00:14.656Z,100579.31
2023-05-06T15:02:43.247Z,100574.88
2023-05-06T15:05:13.056Z,100574.22
2023-05-06T15:07:42.494Z,100567.06
2023-05-06T15:10:11.660Z,100567.22
2023-05-06T15:12:41.486Z,100571.81
2023-05-06T15:15:11.110Z,100568.03
2023-05-06T15:17:41.646Z,100574.06
2023-05-06T15:20:11.544Z,100567.78
2023-05-06T15:22:40.265Z,100567.53
2023-05-06T15:25:16.677Z,100557.19
2023-05-06T15:27:52.470Z,100563.13
2023-05-06T15:30:21.374Z,100561.19
2023-05-06T15:32:50.067Z,100569.16
2023-05-06T15:35:18.789Z,100569.47
2023-05-06T15:37:47.424Z,100564.63
2023-05-06T15:40:15.853Z,100569.84
2023-05-06T15:42:44.750Z,100574.25
2023-05-06T15:45:14.703Z,100567.78
2023-05-06T15:47:43.368Z,100575.81
2023-05-06T15:50:21.310Z,100577.19
2023-05-06T15:53:01.049Z,100579.50
2023-05-06T15:55:30.004Z,100576.38
2023-05-06T15:58:00.776Z,100583.13
2023-05-06T16:00:30.954Z,100569.47
2023-05-06T16:02:59.723Z,100574.72
2023-05-06T16:05:28.486Z,100580.72
2023-05-06T16:07:57.263Z,100575.38
2023-05-06T16:10:25.961Z,100575.38
2023-05-06T16:12:54.755Z,100577.97
2023-05-06T16:15:23.586Z,100578.44
2023-05-06T16:17:53.340Z,100576.34
2023-05-06T16:20:22.151Z,100564.72
2023-05-06T16:22:51.379Z,100567.25
2023-05-06T16:25:20.118Z,100566.66
2023-05-06T16:27:49.345Z,100566.97
2023-05-06T16:30:18.403Z,100567.25
2023-05-06T16:32:47.130Z,100573.41
2023-05-06T16:35:18.297Z,100569.31
2023-05-06T16:37:47.001Z,100574.25
2023-05-06T16:40:20.849Z,100565.22
2023-05-06T16:42:50.076Z,100560.38
2023-05-06T16:45:19.178Z,100567.72
2023-05-06T16:47:48.293Z,100569.41
2023-05-06T16:50:18.340Z,100565.75
2023-05-06T16:52:47.631Z,100571.16
2023-05-06T16:55:16.221Z,100563.28
2023-05-06T16:57:44.564Z,100556.22
2023-05-06T17:00:15.414Z,100557.78
2023-05-06T17:02:44.270Z,100556.22
2023-05-06T17:05:13.009Z,100560.00
2023-05-06T17:07:42.825Z,100550.38
2023-05-06T17:10:12.211Z,100550.53
2023-05-06T17:12:41.669Z,100544.28
2023-05-06T17:15:11.247Z,100548.66
2023-05-06T17:17:40.786Z,100547.06
2023-05-06T17:20:10.782Z,100545.34
2023-05-06T17:22:39.377Z,100546.97
2023-05-06T17:25:10.521Z,100543.97
2023-05-06T17:27:38.950Z,100541.63
2023-05-06T17:30:10.520Z,100538.03
2023-05-06T17:32:39.391Z,100539.97
2023-05-06T17:35:08.865Z,100540.19
2023-05-06T17:37:37.813Z,100535.84
2023-05-06T17:40:09.537Z,100540.88
2023-05-06T17:42:38.280Z,100540.09
2023-05-06T17:45:08.123Z,100544.56
2023-05-06T17:47:37.001Z,100544.06
2023-05-06T17:50:06.497Z,100540.31
2023-05-06T17:52:35.298Z,100544.50
2023-05-06T17:55:18.974Z,100545.25
2023-05-06T17:57:49.178Z,100545.78
2023-05-06T18:00:18.497Z,100544.56
2023-05-06T18:02:47.202Z,100543.38
2023-05-06T18:05:16.096Z,100541.31
2023-05-06T18:07:44.955Z,100541.97
2023-05-06T18:10:14.148Z,100550.56
2023-05-06T18:12:45.234Z,100551.06
2023-05-06T18:15:15.534Z,100543.53
2023-05-06T18:17:44.338Z,100551.06
2023-05-06T18:20:14.120Z,100557.91
2023-05-06T18:22:43.078Z,100555.72
2023-05-06T18:25:12.070Z,100563.25
2023-05-06T18:27:40.937Z,100558.41
2023-05-06T18:30:10.100Z,100556.94
2023-05-06T18:32:39.868Z,100556.34
2023-05-06T18:35:10.982Z,100561.31
2023-05-06T18:37:40.058Z,100551.09
2023-05-06T18:40:10.009Z,100560.34
2023-05-06T18:42:38.742Z,100554.69
2023-05-06T18:45:09.042Z,100553.97
2023-05-06T18:47:40.190Z,100554.47
2023-05-06T18:50:10.175Z,100550.31
2023-05-06T18:52:38.829Z,100558.81
2023-05-06T18:55:09.008Z,100553.94
2023-05-06T18:57:37.921Z,100554.41
2023-05-06T19:00:08.306Z,100558.28
2023-05-06T19:02:37.885Z,100560.56
2023-05-06T19:05:09.445Z,100564.56
2023-05-06T19:07:38.259Z,100574.00
2023-05-06T19:10:08.353Z,100579.81
2023-05-06T19:12:36.764Z,100567.88
2023-05-06T19:15:06.252Z,100575.16
2023-05-06T19:17:35.030Z,100580.13
2023-05-06T19:20:05.144Z,100583.94
2023-05-06T19:22:34.916Z,100577.97
2023-05-06T19:25:03.498Z,100589.09
2023-05-06T19:27:32.278Z,100584.00
2023-05-06T19:30:00.927Z,100585.28
2023-05-06T19:32:29.683Z,100588.31
2023-05-06T19:34:59.038Z,100586.81
2023-05-06T19:37:30.317Z,100588.00
2023-05-06T19:40:00.275Z,100587.25
2023-05-06T19:42:29.055Z,100588.69
2023-05-06T19:44:57.850Z,100590.50
2023-05-06T19:47:27.300Z,100586.44
2023-05-06T19:49:56.032Z,100592.22
2023-05-06T19:52:25.280Z,100590.75
2023-05-06T19:54:54.439Z,100588.41
2023-05-06T19:57:24.226Z,100595.66
2023-05-06T19:59:52.582Z,100598.66
2023-05-06T20:02:21.431Z,100598.88
2023-05-06T20:04:50.644Z,100600.16
2023-05-06T20:07:20.982Z,100603.13
2023-05-06T20:09:55.099Z,100601.00
2023-05-06T20:12:27.301Z,100602.28
2023-05-06T20:14:56.262Z,100600.97
2023-05-06T20:17:24.829Z,100603.13
2023-05-06T20:19:57.186Z,100609.63
2023-05-06T20:22:25.992Z,100599.28
2023-05-06T20:25:07.972Z,100602.25
2023-05-06T20:27:37.985Z,100600.78
2023-05-06T20:30:09.611Z,100602.88
2023-05-06T20:32:38.618Z,100605.88
2023-05-06T20:35:08.840Z,100606.94
2023-05-06T20:37:38.144Z,100609.06
2023-05-06T20:40:09.634Z,100601.38
2023-05-06T20:42:39.720Z,100599.13
2023-05-06T20:45:09.850Z,100597.53
2023-05-06T20:47:38.817Z,100607.53
2023-05-06T20:50:08.185Z,100601.50
2023-05-06T20:52:40.902Z,100607.16
2023-05-06T20:55:12.949Z,100605.56
2023-05-06T20:57:46.259Z,100594.13
2023-05-06T21:00:15.578Z,100605.97
2023-05-06T21:02:44.107Z,100606.16
2023-05-06T21:05:13.158Z,100601.88
2023-05-06T21:07:41.910Z,100604.84
2023-05-06T21:10:11.851Z,100605.94
2023-05-06T21:12:40.379Z,100604.50
2023-05-06T21:15:11.764Z,100599.28
2023-05-06T21:17:40.851Z,100598.81
2023-05-06T21:20:10.740Z,100603.38
2023-05-06T21:22:39.469Z,100607.22
2023-05-06T21:25:09.942Z,100613.72
2023-05-06T21:27:38.862Z,100603.47
2023-05-06T21:30:10.655Z,100603.72
2023-05-06T21:32:39.399Z,100597.00
2023-05-06T21:35:08.952Z,100614.84
2023-05-06T21:37:37.807Z,100616.97
2023-05-06T21:40:07.564Z,100618.88
2023-05-06T21:42:35.931Z,100615.66
2023-05-06T21:45:04.972Z,100609.66
2023-05-06T21:47:34.791Z,100609.06
2023-05-06T21:50:03.391Z,100605.75
2023-05-06T21:52:32.525Z,100603.38
2023-05-06T21:55:01.020Z,100597.56
2023-05-06T21:57:29.899Z,100597.94
2023-05-06T21:59:58.682Z,100596.63
2023-05-06T22:02:27.488Z,100593.41
2023-05-06T22:04:57.260Z,100598.16
2023-05-06T22:07:26.007Z,100595.69
2023-05-06T22:09:54.360Z,100604.72
2023-05-06T22:12:23.014Z,100599.66
2023-05-06T22:14:51.707Z,100598.16
2023-05-06T22:17:20.231Z,100601.94
2023-05-06T22:19:48.943Z,100603.84
2023-05-06T22:22:19.352Z,100595.09
2023-05-06T22:24:48.593Z,100600.59
2023-05-06T22:27:17.289Z,100585.03
2023-05-06T22:29:45.967Z,100589.00
2023-05-06T22:32:14.641Z,100588.31
2023-05-06T22:34:43.278Z,100589.56
2023-05-06T22:37:12.854Z,100587.13
2023-05-06T22:39:42.650Z,100586.47
2023-05-06T22:42:11.139Z,100585.97
2023-05-06T22:44:39.800Z,100588.72
2023-05-06T22:47:08.138Z,100593.44
2023-05-06T22:49:36.873Z,100595.34
2023-05-06T22:52:05.820Z,100592.88
2023-05-06T22:54:34.802Z,100590.28
2023-05-06T22:57:04.896Z,100589.44
2023-05-06T22:59:33.627Z,100590.56
2023-05-06T23:02:02.568Z,100588.09
2023-05-06T23:04:31.265Z,100595.28
2023-05-06T23:06:59.948Z,100587.50
2023-05-06T23:09:28.776Z,100584.06
2023-05-06T23:11:57.449Z,100590.31
2023-05-06T23:14:27.165Z,100589.47
2023-05-06T23:16:55.873Z,100590.50
2023-05-06T23:19:24.587Z,100587.06
2023-05-06T23:21:53.323Z,100594.25
2023-05-06T23:24:21.992Z,100597.88
2023-05-06T23:26:51.897Z,100597.19
2023-05-06T23:29:20.590Z,100592.91
2023-05-06T23:31:50.875Z,100600.09
2023-05-06T23:34:19.636Z,100598.50
2023-05-06T23:36:48.329Z,100602.06
2023-05-06T23:39:17.494Z,100602.19
2023-05-06T23:41:46.219Z,100600.63
2023-05-06T23:44:15.019Z,100605.25
2023-05-06T23:46:43.759Z,100609.88
2023-05-06T23:49:13.599Z,100602.88
2023-05-06T23:51:42.266Z,100603.06
2023-05-06T23:54:10.931Z,100601.31
2023-05-06T23:56:40.253Z,100603.19
2023-05-06T23:59:09.684Z,100604.31
